createdAt,value
2022-10-23T00:01:18.491Z,11.60
2022-10-23T00:03:46.606Z,11.05
2022-10-23T00:06:16.064Z,12.10
2022-10-23T00:08:43.397Z,11.80
2022-10-23T00:11:12.680Z,11.70
2022-10-23T00:13:39.699Z,11.75
2022-10-23T00:16:07.435Z,12.05
2022-10-23T00:18:34.957Z,12.13
2022-10-23T00:21:02.833Z,12.65
2022-10-23T00:23:29.693Z,11.98
2022-10-23T00:25:56.485Z,12.40
2022-10-23T00:28:23.408Z,17.83
2022-10-23T00:30:50.272Z,19.83
2022-10-23T00:33:17.070Z,18.35
2022-10-23T00:35:44.233Z,15.20
2022-10-23T00:38:11.736Z,13.85
2022-10-23T00:40:39.621Z,12.63
2022-10-23T00:43:07.570Z,12.93
2022-10-23T00:45:34.517Z,11.65
2022-10-23T00:48:02.729Z,12.18
2022-10-23T00:50:32.645Z,11.48
2022-10-23T00:53:03.237Z,12.10
2022-10-23T00:55:32.473Z,13.02
2022-10-23T00:57:59.727Z,12.50
2022-10-23T01:00:41.433Z,12.93
2022-10-23T01:03:08.366Z,12.45
2022-10-23T01:05:53.486Z,12.80
2022-10-23T01:08:40.003Z,12.75
2022-10-23T01:11:13.280Z,13.60
2022-10-23T01:14:10.292Z,12.73
2022-10-23T01:16:45.157Z,13.38
2022-10-23T01:19:17.132Z,13.43
2022-10-23T01:22:00.438Z,13.68
2022-10-23T01:24:56.048Z,14.02
2022-10-23T01:27:31.048Z,14.07
2022-10-23T01:30:06.692Z,14.02
2022-10-23T01:32:44.496Z,13.60
2022-10-23T01:35:38.018Z,13.65
2022-10-23T01:38:23.527Z,14.00
2022-10-23T01:40:53.127Z,14.23
2022-10-23T01:43:25.866Z,14.95
2022-10-23T01:46:06.674Z,14.48
2022-10-23T01:48:35.816Z,14.43
2022-10-23T01:51:07.806Z,14.02
2022-10-23T01:53:41.268Z,14.85
2022-10-23T01:56:12.677Z,15.63
2022-10-23T01:58:44.129Z,16.08
2022-10-23T02:01:12.542Z,16.60
2022-10-23T02:03:41.326Z,15.98
2022-10-23T02:06:08.392Z,16.63
2022-10-23T02:08:35.600Z,17.02
2022-10-23T02:11:12.857Z,17.05
2022-10-23T02:13:45.759Z,16.38
2022-10-23T02:16:27.358Z,16.98
2022-10-23T02:19:11.213Z,16.50
2022-10-23T02:21:48.788Z,16.63
2022-10-23T02:24:20.486Z,16.42
2022-10-23T02:29:24.561Z,16.80
2022-10-23T02:31:51.495Z,16.98
2022-10-23T02:34:19.225Z,17.05
2022-10-23T02:36:46.298Z,17.65
2022-10-23T02:39:13.222Z,17.65
2022-10-23T02:41:51.265Z,17.73
2022-10-23T02:44:38.273Z,19.27
2022-10-23T02:47:35.147Z,18.50
2022-10-23T02:50:38.440Z,18.67
2022-10-23T02:53:35.498Z,19.77
2022-10-23T02:56:25.509Z,17.80
2022-10-23T02:59:16.829Z,18.13
2022-10-23T03:01:54.351Z,19.13
2022-10-23T03:04:24.527Z,18.85
2022-10-23T03:06:52.097Z,18.67
2022-10-23T03:09:19.498Z,18.48
2022-10-23T03:11:46.530Z,19.33
2022-10-23T03:14:14.027Z,19.52
2022-10-23T03:16:40.830Z,19.80
2022-10-23T03:19:07.709Z,19.38
2022-10-23T03:21:34.647Z,19.65
2022-10-23T03:24:01.494Z,19.13
2022-10-23T03:26:28.334Z,19.48
2022-10-23T03:28:55.209Z,20.13
2022-10-23T03:31:22.079Z,20.70
2022-10-23T03:33:48.933Z,20.85
2022-10-23T03:36:15.769Z,20.42
2022-10-23T03:38:42.558Z,20.55
2022-10-23T03:41:09.368Z,20.73
2022-10-23T03:43:36.185Z,19.83
2022-10-23T03:46:03.197Z,17.25
2022-10-23T03:48:30.060Z,18.85
2022-10-23T03:50:56.843Z,19.80
2022-10-23T03:53:23.641Z,19.20
2022-10-23T03:55:50.426Z,17.83
2022-10-23T03:58:17.451Z,19.15
2022-10-23T04:00:44.298Z,18.83
2022-10-23T04:03:11.133Z,17.60
2022-10-23T04:05:39.139Z,17.65
2022-10-23T04:08:05.988Z,18.65
2022-10-23T04:10:32.823Z,18.10
2022-10-23T04:12:59.702Z,16.45
2022-10-23T04:15:26.534Z,16.83
2022-10-23T04:17:53.385Z,17.83
2022-10-23T04:20:20.381Z,17.73
2022-10-23T04:22:47.205Z,16.55
2022-10-23T04:25:14.169Z,16.02
2022-10-23T04:27:41.282Z,16.33
2022-10-23T04:30:09.386Z,16.50
2022-10-23T04:32:36.217Z,17.23
2022-10-23T04:35:03.265Z,15.85
2022-10-23T04:37:30.119Z,17.85
2022-10-23T04:39:56.955Z,16.25
2022-10-23T04:42:24.077Z,16.55
2022-10-23T04:44:50.919Z,17.20
2022-10-23T04:47:17.792Z,15.95
2022-10-23T04:49:44.613Z,16.25
2022-10-23T04:52:11.463Z,15.38
2022-10-23T04:54:39.140Z,15.90
2022-10-23T04:57:05.969Z,15.27
2022-10-23T04:59:32.939Z,15.98
2022-10-23T05:01:59.793Z,16.30
2022-10-23T05:04:26.720Z,16.45
2022-10-23T05:06:53.631Z,16.42
2022-10-23T05:09:22.229Z,16.90
2022-10-23T05:11:49.335Z,17.05
2022-10-23T05:14:20.555Z,18.05
2022-10-23T05:17:08.444Z,17.70
2022-10-23T05:19:40.868Z,16.85
2022-10-23T05:22:09.105Z,16.98
2022-10-23T05:24:36.004Z,17.50
2022-10-23T05:27:02.830Z,19.23
2022-10-23T05:29:29.944Z,18.45
2022-10-23T05:32:02.849Z,17.02
2022-10-23T05:34:31.919Z,18.00
2022-10-23T05:36:58.891Z,19.85
2022-10-23T05:39:25.820Z,18.25
2022-10-23T05:41:52.792Z,17.60
2022-10-23T05:44:19.592Z,18.80
2022-10-23T05:46:46.562Z,17.95
2022-10-23T05:49:13.355Z,18.30
2022-10-23T05:51:41.234Z,18.42
2022-10-23T05:54:08.684Z,17.52
2022-10-23T05:56:36.895Z,19.05
2022-10-23T05:59:04.499Z,18.23
2022-10-23T06:01:31.487Z,17.20
2022-10-23T06:04:00.264Z,18.10
2022-10-23T06:06:27.287Z,16.85
2022-10-23T06:08:54.706Z,18.08
2022-10-23T06:11:21.581Z,18.35
2022-10-23T06:13:48.628Z,19.02
2022-10-23T06:16:21.087Z,19.42
2022-10-23T06:18:48.464Z,17.42
2022-10-23T06:21:16.414Z,16.92
2022-10-23T06:23:45.003Z,19.98
2022-10-23T06:26:14.420Z,18.02
2022-10-23T06:28:41.615Z,15.52
2022-10-23T06:31:11.585Z,15.57
2022-10-23T06:33:38.728Z,16.30
2022-10-23T06:36:08.287Z,17.20
2022-10-23T06:38:37.293Z,16.67
2022-10-23T06:41:05.053Z,16.67
2022-10-23T06:43:31.834Z,16.17
2022-10-23T06:46:02.779Z,17.42
2022-10-23T06:48:29.906Z,17.10
2022-10-23T06:50:56.756Z,18.42
2022-10-23T06:53:24.957Z,19.00
2022-10-23T06:55:55.319Z,18.85
2022-10-23T06:58:22.574Z,16.88
2022-10-23T07:00:49.417Z,17.88
2022-10-23T07:03:16.285Z,18.38
2022-10-23T07:05:44.913Z,16.40
2022-10-23T07:08:11.723Z,17.70
2022-10-23T07:10:38.707Z,17.58
2022-10-23T07:13:05.546Z,18.15
2022-10-23T07:15:32.414Z,17.05
2022-10-23T07:17:59.290Z,19.50
2022-10-23T07:20:26.484Z,17.45
2022-10-23T07:22:54.881Z,18.38
2022-10-23T07:25:23.177Z,17.83
2022-10-23T07:27:50.306Z,17.48
2022-10-23T07:30:17.277Z,17.67
2022-10-23T07:32:44.868Z,18.58
2022-10-23T07:37:40.230Z,18.50
2022-10-23T07:40:08.328Z,16.30
2022-10-23T07:42:35.652Z,16.73
2022-10-23T07:45:04.459Z,15.35
2022-10-23T07:47:32.635Z,15.27
2022-10-23T07:49:59.713Z,14.20
2022-10-23T07:52:28.781Z,13.02
2022-10-23T07:54:57.533Z,11.82
2022-10-23T07:57:24.357Z,11.70
2022-10-23T07:59:51.181Z,10.20
2022-10-23T08:02:18.210Z,9.88
2022-10-23T08:04:45.073Z,9.35
2022-10-23T08:07:11.930Z,8.52
2022-10-23T08:09:38.852Z,6.30
2022-10-23T08:12:06.058Z,5.03
2022-10-23T08:14:32.886Z,6.05
2022-10-23T08:16:59.756Z,5.63
2022-10-23T08:19:26.621Z,4.80
2022-10-23T08:21:57.343Z,5.93
2022-10-23T08:24:24.262Z,5.60
2022-10-23T08:26:51.196Z,5.80
2022-10-23T08:29:18.151Z,4.30
2022-10-23T08:31:45.003Z,3.92
2022-10-23T08:34:11.911Z,3.70
2022-10-23T08:36:39.420Z,3.30
2022-10-23T08:39:07.328Z,3.03
2022-10-23T08:41:44.179Z,3.80
2022-10-23T08:44:23.415Z,3.30
2022-10-23T08:46:59.325Z,3.03
2022-10-23T08:49:43.392Z,3.78
2022-10-23T08:52:28.079Z,3.47
2022-10-23T08:55:16.534Z,3.00
2022-10-23T08:58:07.492Z,2.80
2022-10-23T09:00:34.986Z,3.00
2022-10-23T09:03:04.547Z,3.15
2022-10-23T09:06:21.512Z,2.75
2022-10-23T09:09:03.358Z,2.67
2022-10-23T09:11:48.358Z,3.10
2022-10-23T09:14:42.504Z,2.88
2022-10-23T09:17:21.281Z,3.25
2022-10-23T09:19:54.327Z,2.92
2022-10-23T09:22:21.152Z,3.20
2022-10-23T09:24:52.981Z,3.30
2022-10-23T09:27:21.154Z,2.97
2022-10-23T09:29:55.544Z,3.95
2022-10-23T09:32:48.403Z,3.65
2022-10-23T09:35:26.552Z,4.00
2022-10-23T09:37:53.788Z,3.38
2022-10-23T09:40:42.132Z,11.55
2022-10-23T09:43:17.732Z,4.60
2022-10-23T09:45:55.639Z,3.92
2022-10-23T09:48:22.498Z,3.67
2022-10-23T09:50:54.599Z,3.08
2022-10-23T09:53:48.881Z,3.50
2022-10-23T09:56:30.479Z,3.15
2022-10-23T09:59:01.435Z,3.17
2022-10-23T10:01:45.475Z,3.47
2022-10-23T10:04:12.347Z,3.83
2022-10-23T10:06:39.248Z,3.03
2022-10-23T10:09:11.609Z,3.47
2022-10-23T10:11:47.708Z,3.90
2022-10-23T10:14:39.181Z,4.25
2022-10-23T10:17:16.181Z,3.17
2022-10-23T10:20:06.904Z,2.97
2022-10-23T10:22:56.465Z,3.50
2022-10-23T10:25:34.281Z,3.28
2022-10-23T10:28:33.528Z,3.13
2022-10-23T10:31:10.507Z,3.00
2022-10-23T10:33:52.639Z,3.47
2022-10-23T10:36:22.590Z,3.35
2022-10-23T10:38:53.585Z,4.30
2022-10-23T10:41:48.758Z,4.03
2022-10-23T10:44:53.430Z,3.97
2022-10-23T10:47:33.380Z,4.72
2022-10-23T10:50:28.693Z,3.83
2022-10-23T10:53:14.080Z,3.80
2022-10-23T10:55:46.918Z,4.30
2022-10-23T10:58:25.936Z,3.90
2022-10-23T11:01:03.299Z,4.47
2022-10-23T11:04:12.747Z,4.70
2022-10-23T11:06:41.626Z,3.75
2022-10-23T11:09:20.898Z,3.80
2022-10-23T11:11:49.352Z,3.78
2022-10-23T11:14:22.716Z,5.32
2022-10-23T11:17:09.745Z,3.88
2022-10-23T11:19:40.468Z,3.80
2022-10-23T11:22:30.459Z,3.90
2022-10-23T11:25:15.701Z,3.67
2022-10-23T11:27:54.596Z,3.40
2022-10-23T11:30:45.354Z,4.10
2022-10-23T11:33:47.411Z,3.97
2022-10-23T11:38:53.090Z,3.35
2022-10-23T11:41:34.128Z,4.03
2022-10-23T11:44:04.141Z,4.00
2022-10-23T11:46:35.795Z,4.30
2022-10-23T11:51:38.252Z,3.78
2022-10-23T11:54:24.371Z,13.25
2022-10-23T11:57:10.615Z,4.47
2022-10-23T11:59:49.381Z,4.43
2022-10-23T12:02:32.199Z,4.22
2022-10-23T12:05:04.673Z,3.28
2022-10-23T12:07:35.920Z,2.78
2022-10-23T12:10:05.260Z,3.15
2022-10-23T12:12:40.683Z,2.90
2022-10-23T12:15:15.900Z,2.85
2022-10-23T12:17:43.998Z,3.38
2022-10-23T12:20:11.294Z,3.00
2022-10-23T12:23:02.992Z,2.53
2022-10-23T12:25:58.363Z,2.63
2022-10-23T12:29:05.501Z,3.30
2022-10-23T12:31:50.822Z,2.58
2022-10-23T12:34:34.556Z,2.72
2022-10-23T12:37:22.823Z,2.70
2022-10-23T12:39:55.243Z,2.63
2022-10-23T12:42:28.457Z,2.70
2022-10-23T12:45:41.876Z,4.00
2022-10-23T12:48:20.507Z,2.55
2022-10-23T12:50:55.891Z,2.55
2022-10-23T12:53:24.202Z,5.65
2022-10-23T12:58:32.104Z,2.97
2022-10-23T13:01:05.576Z,2.97
2022-10-23T13:03:34.161Z,3.17
2022-10-23T13:06:03.140Z,3.35
2022-10-23T13:08:39.112Z,3.35
2022-10-23T13:11:06.817Z,3.00
2022-10-23T13:13:33.689Z,3.05
2022-10-23T13:16:00.483Z,3.03
2022-10-23T13:18:27.316Z,2.90
2022-10-23T13:20:54.116Z,3.25
2022-10-23T13:23:33.201Z,2.90
2022-10-23T13:26:23.416Z,3.58
2022-10-23T13:28:50.758Z,3.40
2022-10-23T13:31:17.492Z,3.28
2022-10-23T13:33:47.106Z,2.95
2022-10-23T13:36:13.906Z,3.10
2022-10-23T13:39:02.247Z,3.55
2022-10-23T13:41:36.860Z,3.53
2022-10-23T13:44:03.845Z,3.88
2022-10-23T13:46:30.741Z,4.20
2022-10-23T13:48:57.600Z,4.30
2022-10-23T13:51:27.686Z,3.55
2022-10-23T13:53:55.830Z,3.85
2022-10-23T13:56:24.246Z,4.80
2022-10-23T13:58:51.190Z,4.25
2022-10-23T14:01:22.497Z,4.90
2022-10-23T14:03:51.177Z,4.15
2022-10-23T14:06:18.113Z,4.20
2022-10-23T14:08:45.585Z,4.95
2022-10-23T14:13:47.980Z,4.30
2022-10-23T14:16:17.382Z,4.15
2022-10-23T14:18:44.717Z,3.78
2022-10-23T14:21:14.531Z,4.13
2022-10-23T14:23:41.362Z,3.58
2022-10-23T14:26:11.156Z,4.47
2022-10-23T14:28:38.236Z,8.35
2022-10-23T14:31:16.795Z,6.57
2022-10-23T14:33:44.846Z,8.95
2022-10-23T14:36:13.007Z,4.88
2022-10-23T14:38:40.024Z,4.90
2022-10-23T14:41:11.738Z,4.10
2022-10-23T14:46:16.431Z,4.47
2022-10-23T14:48:46.125Z,4.80
2022-10-23T14:51:20.977Z,4.25
2022-10-23T14:53:48.599Z,4.05
2022-10-23T14:56:16.024Z,4.10
2022-10-23T14:58:43.361Z,4.60
2022-10-23T15:01:10.829Z,4.20
2022-10-23T15:03:37.798Z,4.50
2022-10-23T15:06:07.055Z,4.93
2022-10-23T15:08:34.575Z,5.30
2022-10-23T15:11:02.833Z,5.13
2022-10-23T15:13:29.845Z,6.15
2022-10-23T15:16:05.729Z,4.93
2022-10-23T15:18:32.618Z,5.50
2022-10-23T15:21:00.213Z,5.53
2022-10-23T15:23:27.095Z,5.47
2022-10-23T15:26:02.092Z,5.28
2022-10-23T15:28:30.036Z,5.50
2022-10-23T15:30:57.013Z,5.22
2022-10-23T15:33:24.049Z,5.28
2022-10-23T15:35:52.188Z,4.90
2022-10-23T15:38:19.381Z,5.43
2022-10-23T15:40:47.288Z,9.63
2022-10-23T15:43:15.271Z,10.75
2022-10-23T15:45:43.070Z,7.53
2022-10-23T15:48:09.942Z,6.10
2022-10-23T15:50:37.219Z,9.20
2022-10-23T15:53:04.682Z,9.57
2022-10-23T15:55:31.614Z,7.95
2022-10-23T15:58:04.081Z,6.32
2022-10-23T16:00:31.126Z,6.07
2022-10-23T16:02:58.353Z,6.43
2022-10-23T16:05:25.166Z,5.43
2022-10-23T16:07:51.987Z,5.07
2022-10-23T16:10:19.092Z,4.90
2022-10-23T16:12:46.183Z,5.20
2022-10-23T16:15:13.115Z,6.03
2022-10-23T16:17:40.122Z,7.30
2022-10-23T16:20:07.712Z,6.10
2022-10-23T16:22:34.566Z,4.93
2022-10-23T16:25:01.554Z,4.65
2022-10-23T16:27:28.475Z,4.60
2022-10-23T16:29:55.311Z,4.22
2022-10-23T16:32:22.210Z,4.57
2022-10-23T16:34:49.026Z,5.07
2022-10-23T16:37:15.923Z,5.80
2022-10-23T16:39:42.738Z,5.30
2022-10-23T16:42:09.594Z,4.60
2022-10-23T16:44:36.471Z,4.53
2022-10-23T16:47:03.275Z,4.50
2022-10-23T16:49:32.201Z,4.13
2022-10-23T16:51:59.230Z,4.28
2022-10-23T16:54:26.098Z,3.95
2022-10-23T16:56:53.018Z,4.13
2022-10-23T16:59:19.831Z,4.18
2022-10-23T17:01:46.811Z,3.80
2022-10-23T17:04:13.734Z,4.55
2022-10-23T17:06:41.213Z,4.30
2022-10-23T17:09:08.294Z,4.82
2022-10-23T17:11:38.204Z,4.50
2022-10-23T17:14:17.628Z,4.57
2022-10-23T17:16:48.093Z,4.95
2022-10-23T17:19:33.126Z,4.93
2022-10-23T17:22:04.161Z,5.43
2022-10-23T17:24:30.956Z,5.43
2022-10-23T17:26:57.859Z,7.75
2022-10-23T17:29:24.906Z,7.93
2022-10-23T17:31:52.135Z,10.80
2022-10-23T17:34:22.114Z,8.60
2022-10-23T17:36:52.202Z,7.80
2022-10-23T17:39:22.406Z,8.68
2022-10-23T17:41:49.258Z,7.47
2022-10-23T17:44:16.246Z,9.13
2022-10-23T17:46:43.476Z,9.55
2022-10-23T17:49:11.251Z,9.35
2022-10-23T17:51:38.212Z,7.35
2022-10-23T17:54:11.425Z,14.95
2022-10-23T17:56:38.850Z,8.13
2022-10-23T17:59:09.565Z,7.93
2022-10-23T18:01:36.916Z,7.40
2022-10-23T18:04:06.382Z,8.07
2022-10-23T18:06:36.602Z,8.38
2022-10-23T18:09:05.237Z,7.78
2022-10-23T18:11:37.739Z,8.18
2022-10-23T18:14:06.473Z,7.97
2022-10-23T18:16:34.884Z,7.50
2022-10-23T18:19:02.656Z,7.57
2022-10-23T18:21:29.697Z,13.07
2022-10-23T18:23:59.171Z,9.27
2022-10-23T18:26:28.775Z,8.20
2022-10-23T18:28:58.245Z,8.05
2022-10-23T18:31:27.760Z,7.50
2022-10-23T18:34:07.668Z,6.55
2022-10-23T18:36:38.413Z,6.28
2022-10-23T18:39:07.435Z,7.00
2022-10-23T18:41:37.392Z,6.00
2022-10-23T18:44:04.807Z,6.45
2022-10-23T18:46:32.228Z,6.78
2022-10-23T18:48:59.657Z,7.00
2022-10-23T18:51:29.324Z,6.63
2022-10-23T18:53:57.256Z,7.40
2022-10-23T18:56:26.754Z,7.35
2022-10-23T18:59:01.999Z,6.90
2022-10-23T19:01:30.072Z,9.90
2022-10-23T19:03:58.574Z,11.50
2022-10-23T19:06:25.813Z,6.30
2022-10-23T19:08:52.986Z,7.07
2022-10-23T19:11:21.814Z,5.88
2022-10-23T19:13:48.701Z,6.32
2022-10-23T19:16:41.628Z,6.57
2022-10-23T19:19:21.561Z,6.75
2022-10-23T19:21:49.885Z,6.80
2022-10-23T19:24:24.152Z,7.80
2022-10-23T19:26:51.169Z,6.75
2022-10-23T19:29:20.632Z,6.15
2022-10-23T19:31:49.351Z,6.10
2022-10-23T19:34:20.045Z,5.80
2022-10-23T19:36:48.167Z,5.32
2022-10-23T19:39:15.386Z,5.60
2022-10-23T19:41:42.235Z,5.35
2022-10-23T19:44:09.261Z,11.80
2022-10-23T19:46:36.997Z,6.78
2022-10-23T19:49:05.196Z,6.15
2022-10-23T19:51:32.695Z,5.47
2022-10-23T19:53:59.745Z,5.97
2022-10-23T19:56:26.966Z,5.72
2022-10-23T19:58:53.835Z,6.03
2022-10-23T20:01:24.131Z,5.90
2022-10-23T20:03:51.751Z,5.97
2022-10-23T20:06:22.251Z,5.97
2022-10-23T20:08:49.105Z,5.75
2022-10-23T20:11:28.514Z,5.75
2022-10-23T20:13:56.203Z,5.55
2022-10-23T20:16:31.382Z,5.82
2022-10-23T20:19:00.829Z,5.53
2022-10-23T20:21:27.681Z,6.28
2022-10-23T20:23:57.097Z,6.00
2022-10-23T20:26:24.228Z,6.57
2022-10-23T20:28:56.021Z,6.13
2022-10-23T20:31:26.018Z,5.47
2022-10-23T20:33:53.055Z,6.45
2022-10-23T20:36:30.245Z,5.75
2022-10-23T20:38:58.673Z,6.15
2022-10-23T20:41:27.188Z,6.05
2022-10-23T20:43:55.881Z,6.55
2022-10-23T20:46:25.431Z,6.82
2022-10-23T20:48:52.915Z,6.40
2022-10-23T20:51:21.508Z,5.68
2022-10-23T20:53:48.802Z,5.22
2022-10-23T20:56:19.279Z,5.75
2022-10-23T20:58:46.349Z,5.47
2022-10-23T21:01:19.175Z,5.10
2022-10-23T21:03:51.153Z,4.95
2022-10-23T21:06:19.237Z,6.10
2022-10-23T21:08:46.119Z,5.75
2022-10-23T21:11:15.096Z,5.88
2022-10-23T21:13:43.779Z,5.15
2022-10-23T21:16:13.806Z,5.25
2022-10-23T21:18:45.927Z,5.05
2022-10-23T21:21:14.959Z,4.65
2022-10-23T21:23:41.835Z,4.78
2022-10-23T21:26:08.768Z,5.03
2022-10-23T21:28:35.922Z,4.55
2022-10-23T21:31:07.991Z,4.55
2022-10-23T21:33:36.448Z,3.80
2022-10-23T21:36:18.988Z,4.10
2022-10-23T21:38:47.848Z,4.47
2022-10-23T21:41:23.316Z,4.07
2022-10-23T21:43:54.467Z,4.10
2022-10-23T21:46:22.460Z,4.43
2022-10-23T21:48:49.630Z,4.18
2022-10-23T21:51:37.292Z,3.60
2022-10-23T21:54:06.431Z,3.55
2022-10-23T21:56:49.447Z,3.40
2022-10-23T21:59:19.779Z,3.83
2022-10-23T22:01:48.120Z,3.70
2022-10-23T22:04:17.429Z,3.85
2022-10-23T22:06:46.300Z,4.10
2022-10-23T22:09:16.670Z,4.03
2022-10-23T22:11:43.668Z,4.97
2022-10-23T22:14:10.821Z,5.28
2022-10-23T22:16:37.741Z,4.55
2022-10-23T22:19:04.958Z,3.70
2022-10-23T22:21:32.072Z,4.80
2022-10-23T22:24:00.092Z,4.13
2022-10-23T22:26:30.091Z,4.22
2022-10-23T22:29:00.410Z,4.50
2022-10-23T22:31:29.833Z,4.53
2022-10-23T22:33:57.238Z,4.10
2022-10-23T22:36:25.105Z,4.15
2022-10-23T22:38:52.200Z,4.35
2022-10-23T22:41:19.939Z,4.35
2022-10-23T22:43:46.906Z,4.15
2022-10-23T22:46:17.160Z,4.43
2022-10-23T22:48:44.814Z,4.90
2022-10-23T22:51:14.635Z,4.47
2022-10-23T22:53:42.243Z,4.95
2022-10-23T22:56:11.104Z,7.97
2022-10-23T22:58:38.015Z,6.60
2022-10-23T23:01:22.883Z,7.85
2022-10-23T23:03:50.392Z,9.70
2022-10-23T23:06:18.016Z,8.85
2022-10-23T23:08:45.295Z,10.40
2022-10-23T23:11:14.179Z,6.78
2022-10-23T23:13:41.584Z,5.63
2022-10-23T23:16:14.070Z,6.20
2022-10-23T23:18:40.861Z,6.60
2022-10-23T23:21:07.648Z,6.68
2022-10-23T23:23:34.564Z,6.95
2022-10-23T23:26:05.870Z,7.15
2022-10-23T23:28:32.729Z,6.60
2022-10-23T23:31:08.698Z,6.68
2022-10-23T23:33:35.680Z,6.22
2022-10-23T23:36:08.334Z,6.32
2022-10-23T23:38:36.310Z,6.68
2022-10-23T23:41:03.555Z,6.13
2022-10-23T23:43:30.879Z,6.80
2022-10-23T23:45:58.516Z,6.38
2022-10-23T23:48:26.165Z,7.30
2022-10-23T23:50:52.952Z,7.32
2022-10-23T23:53:19.808Z,7.18
2022-10-23T23:55:46.677Z,6.40
2022-10-23T23:58:13.793Z,6.57
